sensor_id;sensor_type;location;lat;lon;timestamp;temperature;humidity
21518;DHT22;61765;45.794;24.150;2022-11-15T00:07:08;9.40;90.70
21518;DHT22;61765;45.794;24.150;2022-11-15T00:25:15;9.50;90.30
21518;DHT22;61765;45.794;24.150;2022-11-15T00:33:41;9.40;90.30
21518;DHT22;61765;45.794;24.150;2022-11-15T00:42:05;9.40;90.10
21518;DHT22;61765;45.794;24.150;2022-11-15T00:50:32;9.30;90.20
21518;DHT22;61765;45.794;24.150;2022-11-15T00:58:56;9.40;90.10
21518;DHT22;61765;45.794;24.150;2022-11-15T01:07:23;9.30;90.00
21518;DHT22;61765;45.794;24.150;2022-11-15T01:15:47;9.10;90.10
21518;DHT22;61765;45.794;24.150;2022-11-15T01:24:14;9.10;90.00
21518;DHT22;61765;45.794;24.150;2022-11-15T01:32:38;9.00;89.80
21518;DHT22;61765;45.794;24.150;2022-11-15T01:41:04;9.10;90.00
21518;DHT22;61765;45.794;24.150;2022-11-15T01:49:31;8.90;89.80
21518;DHT22;61765;45.794;24.150;2022-11-15T01:58:02;8.80;89.90
21518;DHT22;61765;45.794;24.150;2022-11-15T02:06:27;8.40;90.30
21518;DHT22;61765;45.794;24.150;2022-11-15T02:14:54;8.50;90.40
21518;DHT22;61765;45.794;24.150;2022-11-15T02:23:49;8.60;90.40
21518;DHT22;61765;45.794;24.150;2022-11-15T02:32:29;8.70;90.20
21518;DHT22;61765;45.794;24.150;2022-11-15T02:41:01;8.60;90.00
21518;DHT22;61765;45.794;24.150;2022-11-15T02:49:32;8.60;89.70
21518;DHT22;61765;45.794;24.150;2022-11-15T02:58:06;8.30;89.60
21518;DHT22;61765;45.794;24.150;2022-11-15T03:06:44;8.00;90.40
21518;DHT22;61765;45.794;24.150;2022-11-15T03:15:12;8.20;90.40
21518;DHT22;61765;45.794;24.150;2022-11-15T03:23:40;8.00;90.20
21518;DHT22;61765;45.794;24.150;2022-11-15T03:32:09;8.40;90.10
21518;DHT22;61765;45.794;24.150;2022-11-15T03:40:39;8.30;89.40
21518;DHT22;61765;45.794;24.150;2022-11-15T03:49:06;8.40;89.50
21518;DHT22;61765;45.794;24.150;2022-11-15T03:57:35;8.30;89.30
21518;DHT22;61765;45.794;24.150;2022-11-15T04:05:58;8.20;89.40
21518;DHT22;61765;45.794;24.150;2022-11-15T04:14:25;8.00;88.70
21518;DHT22;61765;45.794;24.150;2022-11-15T04:22:49;7.80;88.80
21518;DHT22;61765;45.794;24.150;2022-11-15T04:31:30;7.70;89.40
21518;DHT22;61765;45.794;24.150;2022-11-15T04:39:53;7.40;89.80
21518;DHT22;61765;45.794;24.150;2022-11-15T04:48:20;7.40;89.90
21518;DHT22;61765;45.794;24.150;2022-11-15T04:56:45;7.40;90.20
21518;DHT22;61765;45.794;24.150;2022-11-15T05:05:11;7.70;89.80
21518;DHT22;61765;45.794;24.150;2022-11-15T05:13:35;7.70;89.20
21518;DHT22;61765;45.794;24.150;2022-11-15T05:22:02;7.80;89.00
21518;DHT22;61765;45.794;24.150;2022-11-15T05:30:26;7.60;89.00
21518;DHT22;61765;45.794;24.150;2022-11-15T05:38:53;7.70;88.80
21518;DHT22;61765;45.794;24.150;2022-11-15T05:47:19;7.60;88.20
21518;DHT22;61765;45.794;24.150;2022-11-15T05:55:47;7.80;88.60
21518;DHT22;61765;45.794;24.150;2022-11-15T06:04:14;7.80;88.40
21518;DHT22;61765;45.794;24.150;2022-11-15T06:12:41;7.90;87.80
21518;DHT22;61765;45.794;24.150;2022-11-15T06:21:06;7.80;87.40
21518;DHT22;61765;45.794;24.150;2022-11-15T06:29:32;8.20;88.00
21518;DHT22;61765;45.794;24.150;2022-11-15T06:38:02;8.30;86.50
21518;DHT22;61765;45.794;24.150;2022-11-15T06:46:29;8.30;86.90
21518;DHT22;61765;45.794;24.150;2022-11-15T06:54:53;8.70;86.40
21518;DHT22;61765;45.794;24.150;2022-11-15T07:03:19;8.40;85.00
21518;DHT22;61765;45.794;24.150;2022-11-15T07:11:44;8.70;86.10
21518;DHT22;61765;45.794;24.150;2022-11-15T07:20:12;8.50;85.20
21518;DHT22;61765;45.794;24.150;2022-11-15T07:28:36;9.20;84.70
21518;DHT22;61765;45.794;24.150;2022-11-15T07:37:03;9.20;86.70
21518;DHT22;61765;45.794;24.150;2022-11-15T07:45:26;9.30;86.20
21518;DHT22;61765;45.794;24.150;2022-11-15T07:53:53;9.70;86.20
21518;DHT22;61765;45.794;24.150;2022-11-15T08:02:17;9.90;85.80
21518;DHT22;61765;45.794;24.150;2022-11-15T08:10:49;10.70;85.40
21518;DHT22;61765;45.794;24.150;2022-11-15T08:19:13;14.30;81.00
21518;DHT22;61765;45.794;24.150;2022-11-15T08:27:40;18.60;64.50
21518;DHT22;61765;45.794;24.150;2022-11-15T08:36:05;21.30;61.70
21518;DHT22;61765;45.794;24.150;2022-11-15T08:44:32;25.60;54.50
21518;DHT22;61765;45.794;24.150;2022-11-15T08:52:56;28.60;49.60
21518;DHT22;61765;45.794;24.150;2022-11-15T09:01:22;31.20;45.00
21518;DHT22;61765;45.794;24.150;2022-11-15T09:09:47;31.70;44.30
21518;DHT22;61765;45.794;24.150;2022-11-15T09:18:13;31.00;43.70
21518;DHT22;61765;45.794;24.150;2022-11-15T09:26:38;33.00;42.70
21518;DHT22;61765;45.794;24.150;2022-11-15T09:35:05;32.90;39.90
21518;DHT22;61765;45.794;24.150;2022-11-15T09:43:34;33.20;41.60
21518;DHT22;61765;45.794;24.150;2022-11-15T09:52:06;30.50;40.00
21518;DHT22;61765;45.794;24.150;2022-11-15T10:00:22;23.40;49.10
21518;DHT22;61765;45.794;24.150;2022-11-15T10:08:56;19.40;57.10
21518;DHT22;61765;45.794;24.150;2022-11-15T10:25:34;16.70;65.10
21518;DHT22;61765;45.794;24.150;2022-11-15T10:33:40;16.20;68.00
21518;DHT22;61765;45.794;24.150;2022-11-15T10:41:48;15.70;69.40
21518;DHT22;61765;45.794;24.150;2022-11-15T10:50:06;15.70;70.20
21518;DHT22;61765;45.794;24.150;2022-11-15T10:58:30;15.50;71.70
21518;DHT22;61765;45.794;24.150;2022-11-15T11:06:46;15.70;71.30
21518;DHT22;61765;45.794;24.150;2022-11-15T11:14:55;15.80;71.50
21518;DHT22;61765;45.794;24.150;2022-11-15T11:23:16;15.70;72.10
21518;DHT22;61765;45.794;24.150;2022-11-15T11:31:30;15.70;72.90
21518;DHT22;61765;45.794;24.150;2022-11-15T11:39:45;15.90;72.30
21518;DHT22;61765;45.794;24.150;2022-11-15T11:48:03;15.90;73.20
21518;DHT22;61765;45.794;24.150;2022-11-15T11:56:19;16.10;72.90
21518;DHT22;61765;45.794;24.150;2022-11-15T12:04:35;15.80;73.60
21518;DHT22;61765;45.794;24.150;2022-11-15T12:12:47;15.60;74.90
21518;DHT22;61765;45.794;24.150;2022-11-15T12:21:01;15.50;75.10
21518;DHT22;61765;45.794;24.150;2022-11-15T12:29:14;15.80;74.40
21518;DHT22;61765;45.794;24.150;2022-11-15T12:46:12;15.90;73.00
21518;DHT22;61765;45.794;24.150;2022-11-15T13:03:24;16.00;74.10
21518;DHT22;61765;45.794;24.150;2022-11-15T13:11:57;16.00;73.60
21518;DHT22;61765;45.794;24.150;2022-11-15T13:20:25;15.60;75.50
21518;DHT22;61765;45.794;24.150;2022-11-15T13:28:33;15.40;75.40
21518;DHT22;61765;45.794;24.150;2022-11-15T13:36:43;15.70;75.40
21518;DHT22;61765;45.794;24.150;2022-11-15T13:44:56;16.10;74.60
21518;DHT22;61765;45.794;24.150;2022-11-15T13:53:05;16.30;73.80
21518;DHT22;61765;45.794;24.150;2022-11-15T14:01:16;16.40;73.90
21518;DHT22;61765;45.794;24.150;2022-11-15T14:09:33;16.30;73.80
21518;DHT22;61765;45.794;24.150;2022-11-15T14:17:39;16.00;73.40
21518;DHT22;61765;45.794;24.150;2022-11-15T14:25:56;16.00;73.60
21518;DHT22;61765;45.794;24.150;2022-11-15T14:34:02;16.10;73.70
21518;DHT22;61765;45.794;24.150;2022-11-15T14:42:11;16.10;74.20
21518;DHT22;61765;45.794;24.150;2022-11-15T14:50:18;16.10;74.40
21518;DHT22;61765;45.794;24.150;2022-11-15T14:58:26;16.10;74.60
21518;DHT22;61765;45.794;24.150;2022-11-15T15:06:32;16.00;74.90
21518;DHT22;61765;45.794;24.150;2022-11-15T15:14:40;15.80;75.60
21518;DHT22;61765;45.794;24.150;2022-11-15T15:22:46;15.70;75.80
21518;DHT22;61765;45.794;24.150;2022-11-15T15:30:54;15.60;76.60
21518;DHT22;61765;45.794;24.150;2022-11-15T15:38:59;15.40;77.70
21518;DHT22;61765;45.794;24.150;2022-11-15T15:47:11;15.20;78.10
21518;DHT22;61765;45.794;24.150;2022-11-15T15:55:16;14.90;78.80
21518;DHT22;61765;45.794;24.150;2022-11-15T16:03:25;14.70;79.40
21518;DHT22;61765;45.794;24.150;2022-11-15T16:11:30;14.50;79.70
21518;DHT22;61765;45.794;24.150;2022-11-15T16:19:38;14.30;79.90
21518;DHT22;61765;45.794;24.150;2022-11-15T16:27:44;14.10;80.80
21518;DHT22;61765;45.794;24.150;2022-11-15T16:35:52;13.80;81.50
21518;DHT22;61765;45.794;24.150;2022-11-15T16:43:58;13.70;82.20
21518;DHT22;61765;45.794;24.150;2022-11-15T16:52:06;13.60;82.80
21518;DHT22;61765;45.794;24.150;2022-11-15T17:00:12;13.60;82.70
21518;DHT22;61765;45.794;24.150;2022-11-15T17:08:21;13.70;82.60
21518;DHT22;61765;45.794;24.150;2022-11-15T17:16:26;13.80;82.50
21518;DHT22;61765;45.794;24.150;2022-11-15T17:24:35;13.60;82.80
21518;DHT22;61765;45.794;24.150;2022-11-15T17:32:41;13.50;83.00
21518;DHT22;61765;45.794;24.150;2022-11-15T17:40:58;13.50;83.20
21518;DHT22;61765;45.794;24.150;2022-11-15T17:49:03;13.40;83.00
21518;DHT22;61765;45.794;24.150;2022-11-15T17:57:12;13.50;83.00
21518;DHT22;61765;45.794;24.150;2022-11-15T18:05:17;13.40;82.80
21518;DHT22;61765;45.794;24.150;2022-11-15T18:13:25;13.20;82.70
21518;DHT22;61765;45.794;24.150;2022-11-15T18:21:31;12.80;83.00
21518;DHT22;61765;45.794;24.150;2022-11-15T18:30:00;12.70;83.80
21518;DHT22;61765;45.794;24.150;2022-11-15T18:38:06;12.50;84.40
21518;DHT22;61765;45.794;24.150;2022-11-15T18:46:16;12.30;84.20
21518;DHT22;61765;45.794;24.150;2022-11-15T18:54:22;12.00;85.10
21518;DHT22;61765;45.794;24.150;2022-11-15T19:02:35;11.90;85.90
21518;DHT22;61765;45.794;24.150;2022-11-15T19:10:41;11.60;86.20
21518;DHT22;61765;45.794;24.150;2022-11-15T19:18:52;11.60;86.40
21518;DHT22;61765;45.794;24.150;2022-11-15T19:26:57;11.40;86.40
21518;DHT22;61765;45.794;24.150;2022-11-15T19:35:06;11.30;86.80
21518;DHT22;61765;45.794;24.150;2022-11-15T19:43:12;11.40;86.50
21518;DHT22;61765;45.794;24.150;2022-11-15T19:51:22;11.30;86.60
21518;DHT22;61765;45.794;24.150;2022-11-15T19:59:29;11.40;86.80
21518;DHT22;61765;45.794;24.150;2022-11-15T20:07:37;11.50;87.00
21518;DHT22;61765;45.794;24.150;2022-11-15T20:15:42;11.70;86.30
21518;DHT22;61765;45.794;24.150;2022-11-15T20:23:50;11.90;86.10
21518;DHT22;61765;45.794;24.150;2022-11-15T20:31:56;11.80;85.70
21518;DHT22;61765;45.794;24.150;2022-11-15T20:40:06;11.80;87.20
21518;DHT22;61765;45.794;24.150;2022-11-15T20:48:11;12.00;86.50
21518;DHT22;61765;45.794;24.150;2022-11-15T20:56:21;11.90;86.60
21518;DHT22;61765;45.794;24.150;2022-11-15T21:04:26;11.90;86.80
21518;DHT22;61765;45.794;24.150;2022-11-15T21:12:34;12.10;86.00
21518;DHT22;61765;45.794;24.150;2022-11-15T21:20:40;12.10;86.30
21518;DHT22;61765;45.794;24.150;2022-11-15T21:28:48;12.30;86.00
21518;DHT22;61765;45.794;24.150;2022-11-15T21:36:54;12.00;86.40
21518;DHT22;61765;45.794;24.150;2022-11-15T21:45:03;12.20;86.20
21518;DHT22;61765;45.794;24.150;2022-11-15T21:53:08;12.40;85.70
21518;DHT22;61765;45.794;24.150;2022-11-15T22:01:16;12.50;85.30
21518;DHT22;61765;45.794;24.150;2022-11-15T22:09:34;12.50;84.30
21518;DHT22;61765;45.794;24.150;2022-11-15T22:17:42;12.00;84.20
21518;DHT22;61765;45.794;24.150;2022-11-15T22:31:15;12.10;83.80
21518;DHT22;61765;45.794;24.150;2022-11-15T22:39:21;11.80;84.70
21518;DHT22;61765;45.794;24.150;2022-11-15T22:47:29;11.70;85.40
21518;DHT22;61765;45.794;24.150;2022-11-15T22:55:36;11.70;85.60
21518;DHT22;61765;45.794;24.150;2022-11-15T23:03:45;11.80;85.50
21518;DHT22;61765;45.794;24.150;2022-11-15T23:11:51;11.80;85.50
21518;DHT22;61765;45.794;24.150;2022-11-15T23:20:11;11.50;85.90
21518;DHT22;61765;45.794;24.150;2022-11-15T23:28:37;11.50;86.60
21518;DHT22;61765;45.794;24.150;2022-11-15T23:36:45;11.60;86.10
21518;DHT22;61765;45.794;24.150;2022-11-15T23:44:51;11.70;85.90
21518;DHT22;61765;45.794;24.150;2022-11-15T23:52:59;11.70;86.00
